Pecatonica, IL (61063)

11:55 PM CDT on April 24, 2015 (GMT -0500)
Illinois Conservation Foundation (TYCEC) | | Change Station
CLOSE
Current Station
Personal Weather Station
Location: Pecatonica, IL
Elevation: 744 ft
Nearby Weather Stations

Elev 744 ft 42.35 °N, 89.30 °W | Updated 0 second ago

Overcast
Overcast
40.5 °F
Feels Like 40 °F
N
1.9
Wind Variable Wind from NNW
Gusts 10.0 mph

Today
High -- | Low -- °F
--% Chance of Precip.
Yesterday
High -- | Low -- °F
Precip. -- in
6:02 AM 7:48 PM
Waxing Crescent, 42% visible
Pressure 29.90 in
Visibility 7.0 miles
Clouds Overcast 4800 ft
Windchill 40 °F
Dew Point 38 °F
Humidity 87%
Rainfall 0.18 in
Snow Depth Not available.
UV 0 out of 12
Pollen 9.50 out of 12
Air Quality Not available.
Flu Activity Regional
METAR KFEP 250435Z AUTO 08012G15KT 7SM -DZ OVC048 05/03 A2990 RMK AO2 T00470030

More Conditions Fewer Conditions

Pressure 29.90 in
Visibility 7.0 miles
Clouds Overcast 4800 ft
Windchill 40 °F
Dew Point 38 °F
Humidity 87%
Rainfall 0.18 in
Snow Depth Not available.
UV 0 out of 12
Pollen 9.50 out of 12
Air Quality Not available.
Flu Activity Regional
METAR KFEP 250435Z AUTO 08012G15KT 7SM -DZ OVC048 05/03 A2990 RMK AO2 T00470030

More Conditions Fewer Conditions

10-Day Weather Forecast

Almanac

Astronomy

Apr. 24, 2015 Rise Set
Actual Time
Civil Twilight
Nautical Twilight
Astronomical Twilight
Moon
Length of Visible Light
Length of Day
Tomorrow will be .
, % of the Moon is Illuminated

Today's Extremes

State Highs State Lows

Community

WunderPhotos

Upload Photos

1,816,605 photos uploaded!

WunderBlogs® & News

Nearby

Air Quality

  Air Quality AQ Index Pollutant
Not available.

Snow Depth

Station Depth Elevation

Earthquake Activity

City Distance Mag. Time & Date
Minimum magnitude displayed is 2.5.

Coastal Water Temperatures

Place Temperature

Stations

Nearby Weather Stations

Station Location Temp. Windchill Dew Point Humidity Wind Precip. Elev Updated Type